Time;durP1;ratioP1;P1;durP2;ratioP2;P2;SDS_P1;SDS_P2;PMS_P1;PMS_P2;Temp;Humidity;BMP_temperature;BMP_pressure;BME280_temperature;BME280_humidity;BME280_pressure;Samples;Min_cycle;Max_cycle;Signal;HPM_P1;HPM_P2
2021/11/26 00:01:57;;;;;;;28.90;15.37;;;;;;;;;;5095986;28;20453;-76
2021/11/26 00:04:26;;;;;;;25.57;15.63;;;;;;;;;;5093728;28;20471;-75
2021/11/26 00:06:54;;;;;;;26.93;15.80;;;;;;;;;;5099944;28;20466;-76
2021/11/26 00:09:21;;;;;;;23.40;15.87;;;;;;;;;;5100812;28;20974;-76
2021/11/26 00:11:49;;;;;;;27.17;15.97;;;;;;;;;;5100676;28;20812;-76
2021/11/26 00:14:20;;;;;;;26.37;16.13;;;;;;;;;;5100760;28;20479;-75
2021/11/26 00:16:56;;;;;;;28.80;16.10;;;;;;;;;;5100958;28;20439;-76
2021/11/26 00:19:24;;;;;;;31.73;16.87;;;;;;;;;;5099748;28;20479;-75
2021/11/26 00:21:52;;;;;;;24.83;16.47;;;;;;;;;;5099548;28;20459;-75
2021/11/26 00:24:20;;;;;;;25.03;14.30;;;;;;;;;;5100496;28;20847;-75
2021/11/26 00:26:49;;;;;;;25.83;15.80;;;;;;;;;;5099454;28;20455;-75
2021/11/26 00:29:17;;;;;;;27.67;15.53;;;;;;;;;;5093946;28;20479;-75
2021/11/26 00:31:45;;;;;;;29.07;17.10;;;;;;;;;;5095996;28;20959;-76
2021/11/26 00:34:15;;;;;;;27.93;15.77;;;;;;;;;;5096014;28;20479;-75
2021/11/26 00:36:43;;;;;;;24.00;14.37;;;;;;;;;;5098980;28;20465;-74
2021/11/26 00:39:11;;;;;;;29.20;16.93;;;;;;;;;;5100273;28;20481;-76
2021/11/26 00:41:39;;;;;;;25.90;15.20;;;;;;;;;;5100171;28;20454;-75
2021/11/26 00:44:07;;;;;;;24.87;15.13;;;;;;;;;;5100064;28;20477;-75
2021/11/26 00:46:35;;;;;;;24.33;16.53;;;;;;;;;;5100274;28;20435;-75
2021/11/26 00:49:03;;;;;;;24.33;15.17;;;;;;;;;;5099226;28;20482;-76
2021/11/26 00:51:33;;;;;;;27.53;15.30;;;;;;;;;;5094784;28;20456;-75
2021/11/26 00:54:01;;;;;;;23.17;14.40;;;;;;;;;;5091696;28;20475;-75
2021/11/26 00:56:29;;;;;;;25.03;14.73;;;;;;;;;;5099994;28;20440;-76
2021/11/26 00:58:57;;;;;;;28.63;15.60;;;;;;;;;;5091815;28;20468;-75
2021/11/26 01:01:25;;;;;;;26.83;15.97;;;;;;;;;;5097937;28;20447;-75
2021/11/26 01:03:54;;;;;;;26.73;15.33;;;;;;;;;;5090425;28;20490;-75
2021/11/26 01:06:22;;;;;;;25.30;15.47;;;;;;;;;;5099070;28;20530;-75
2021/11/26 01:08:51;;;;;;;27.17;15.53;;;;;;;;;;5097231;28;20479;-75
2021/11/26 01:11:19;;;;;;;28.23;17.07;;;;;;;;;;5099719;28;20436;-75
2021/11/26 01:13:47;;;;;;;28.10;16.37;;;;;;;;;;5098800;28;20483;-76
2021/11/26 01:16:15;;;;;;;31.63;16.80;;;;;;;;;;5097271;28;20538;-76
2021/11/26 01:18:43;;;;;;;27.17;17.27;;;;;;;;;;5099405;28;20508;-76
2021/11/26 01:21:11;;;;;;;28.37;16.33;;;;;;;;;;5098130;28;20447;-75
2021/11/26 01:23:40;;;;;;;27.20;15.90;;;;;;;;;;5094566;28;20468;-76
2021/11/26 01:26:09;;;;;;;28.10;17.77;;;;;;;;;;5098302;28;20451;-75
2021/11/26 01:28:37;;;;;;;30.67;16.13;;;;;;;;;;5099247;28;20463;-76
2021/11/26 01:31:05;;;;;;;27.00;17.40;;;;;;;;;;5088905;28;20463;-75
2021/11/26 01:33:33;;;;;;;22.77;14.67;;;;;;;;;;5099212;28;20448;-75
2021/11/26 01:36:01;;;;;;;32.13;17.23;;;;;;;;;;5098033;28;20926;-75
2021/11/26 01:38:30;;;;;;;28.23;15.83;;;;;;;;;;5099060;28;20467;-75
2021/11/26 01:40:59;;;;;;;25.67;15.33;;;;;;;;;;5099323;28;20443;-75
2021/11/26 01:43:28;;;;;;;28.07;15.53;;;;;;;;;;5098839;28;20899;-75
2021/11/26 01:45:57;;;;;;;27.17;16.43;;;;;;;;;;5090809;28;20555;-75
2021/11/26 01:48:25;;;;;;;27.67;16.47;;;;;;;;;;5098715;28;20475;-75
2021/11/26 01:50:55;;;;;;;26.90;15.93;;;;;;;;;;5097421;28;20459;-74
2021/11/26 01:53:23;;;;;;;28.17;16.43;;;;;;;;;;5098032;28;20562;-75
2021/11/26 01:55:51;;;;;;;26.23;15.83;;;;;;;;;;5097869;28;20932;-75
2021/11/26 01:58:20;;;;;;;26.47;17.13;;;;;;;;;;5098614;28;20458;-75
2021/11/26 02:00:49;;;;;;;30.33;17.60;;;;;;;;;;5099004;28;20447;-75
2021/11/26 02:03:17;;;;;;;30.03;15.93;;;;;;;;;;5098552;28;20445;-75
2021/11/26 02:05:46;;;;;;;29.87;16.40;;;;;;;;;;5096872;28;20459;-75
2021/11/26 02:08:14;;;;;;;27.37;17.57;;;;;;;;;;5098597;28;20555;-74
2021/11/26 02:10:42;;;;;;;26.70;16.27;;;;;;;;;;5098323;28;20452;-75
2021/11/26 02:13:10;;;;;;;26.10;16.07;;;;;;;;;;5098619;28;20448;-74
2021/11/26 02:15:41;;;;;;;23.63;15.23;;;;;;;;;;5094649;28;20598;-75
2021/11/26 02:18:11;;;;;;;28.87;16.87;;;;;;;;;;5098411;28;20985;-75
2021/11/26 02:20:41;;;;;;;31.20;17.93;;;;;;;;;;5096047;28;20542;-75
2021/11/26 02:23:09;;;;;;;27.97;15.13;;;;;;;;;;5095855;28;20530;-75
2021/11/26 02:25:37;;;;;;;37.53;18.20;;;;;;;;;;5092572;28;20448;-77
2021/11/26 02:28:06;;;;;;;27.73;16.30;;;;;;;;;;5095210;28;20483;-76
2021/11/26 02:30:34;;;;;;;31.47;17.23;;;;;;;;;;5098258;28;20447;-76
2021/11/26 02:33:04;;;;;;;32.00;18.03;;;;;;;;;;5090314;28;20459;-75
2021/11/26 02:35:32;;;;;;;29.73;16.50;;;;;;;;;;5095542;28;20490;-75
2021/11/26 02:38:02;;;;;;;27.23;16.00;;;;;;;;;;5090495;28;20471;-76
2021/11/26 02:40:32;;;;;;;29.20;17.33;;;;;;;;;;5085077;28;20439;-76
2021/11/26 02:43:00;;;;;;;26.47;16.20;;;;;;;;;;5097712;28;21861;-76
2021/11/26 02:45:28;;;;;;;30.50;16.83;;;;;;;;;;5098036;28;20813;-76
2021/11/26 02:47:57;;;;;;;26.37;16.37;;;;;;;;;;5097772;28;20431;-76
2021/11/26 02:50:26;;;;;;;30.03;15.87;;;;;;;;;;5097797;28;20443;-76
2021/11/26 02:52:54;;;;;;;27.97;15.10;;;;;;;;;;5097681;28;20976;-76
2021/11/26 02:55:24;;;;;;;25.43;15.47;;;;;;;;;;5096925;28;20483;-76
2021/11/26 02:57:53;;;;;;;25.90;15.27;;;;;;;;;;5097610;28;20432;-76
2021/11/26 03:00:22;;;;;;;23.27;14.43;;;;;;;;;;5098032;28;20522;-76
2021/11/26 03:02:50;;;;;;;29.20;15.60;;;;;;;;;;5084213;28;20450;-76
2021/11/26 03:05:18;;;;;;;23.40;14.80;;;;;;;;;;5094507;28;20464;-76
2021/11/26 03:07:46;;;;;;;24.30;13.90;;;;;;;;;;5095001;28;20450;-76
2021/11/26 03:10:17;;;;;;;22.97;13.57;;;;;;;;;;5090209;28;20455;-76
2021/11/26 03:12:47;;;;;;;26.50;15.57;;;;;;;;;;5097427;28;20468;-76
2021/11/26 03:15:15;;;;;;;26.23;16.10;;;;;;;;;;5097505;28;20479;-76
2021/11/26 03:17:43;;;;;;;28.30;14.80;;;;;;;;;;5097780;28;20454;-76
2021/11/26 03:20:12;;;;;;;22.70;13.57;;;;;;;;;;5097558;28;20440;-76
2021/11/26 03:22:40;;;;;;;26.37;15.93;;;;;;;;;;5097520;28;20531;-76
2021/11/26 03:25:09;;;;;;;27.13;15.23;;;;;;;;;;5084053;28;20454;-75
2021/11/26 03:27:37;;;;;;;26.93;15.50;;;;;;;;;;5097732;28;20515;-76
2021/11/26 03:30:08;;;;;;;26.83;14.60;;;;;;;;;;5097320;28;20522;-76
2021/11/26 03:32:36;;;;;;;25.83;14.10;;;;;;;;;;5091028;28;20455;-76
2021/11/26 03:35:04;;;;;;;25.93;15.43;;;;;;;;;;5097021;28;20869;-76
2021/11/26 03:37:32;;;;;;;26.57;16.17;;;;;;;;;;5098168;28;20428;-76
2021/11/26 03:40:01;;;;;;;24.07;14.73;;;;;;;;;;5100038;28;20486;-76
2021/11/26 03:42:29;;;;;;;20.30;12.53;;;;;;;;;;5101551;28;20530;-76
2021/11/26 03:44:56;;;;;;;26.17;14.33;;;;;;;;;;5101118;28;20481;-76
2021/11/26 03:47:26;;;;;;;25.00;14.17;;;;;;;;;;5101531;28;20444;-76
2021/11/26 03:49:54;;;;;;;26.00;14.83;;;;;;;;;;5101255;28;20473;-76
2021/11/26 03:52:22;;;;;;;25.43;14.17;;;;;;;;;;5100890;28;20443;-76
2021/11/26 03:54:50;;;;;;;20.63;12.17;;;;;;;;;;5101216;28;20454;-76
2021/11/26 03:57:18;;;;;;;19.50;12.47;;;;;;;;;;5100295;28;20461;-76
2021/11/26 03:59:46;;;;;;;24.33;14.27;;;;;;;;;;5101065;28;20467;-76
2021/11/26 04:02:14;;;;;;;25.60;14.97;;;;;;;;;;5088552;28;20458;-76
2021/11/26 04:04:43;;;;;;;23.47;14.10;;;;;;;;;;5101330;28;20526;-76
2021/11/26 04:07:11;;;;;;;25.40;14.90;;;;;;;;;;5099387;28;20447;-75
2021/11/26 04:09:40;;;;;;;20.60;13.00;;;;;;;;;;5100845;28;20464;-75
2021/11/26 04:12:09;;;;;;;25.37;14.73;;;;;;;;;;5097391;28;20458;-75
2021/11/26 04:14:39;;;;;;;24.63;14.03;;;;;;;;;;5100686;28;20509;-75
2021/11/26 04:17:10;;;;;;;24.27;14.03;;;;;;;;;;5100676;28;20487;-75
2021/11/26 04:19:39;;;;;;;25.37;15.53;;;;;;;;;;5100624;28;20574;-75
2021/11/26 04:22:08;;;;;;;26.20;15.37;;;;;;;;;;5100489;28;20463;-75
2021/11/26 04:24:37;;;;;;;25.97;13.23;;;;;;;;;;5088711;28;20962;-75
2021/11/26 04:27:05;;;;;;;23.60;13.83;;;;;;;;;;5097231;28;20451;-75
2021/11/26 04:29:32;;;;;;;23.73;14.57;;;;;;;;;;5100253;28;20481;-75
2021/11/26 04:32:00;;;;;;;23.93;14.50;;;;;;;;;;5094457;28;20460;-75
2021/11/26 04:34:28;;;;;;;23.73;14.70;;;;;;;;;;5100427;28;20537;-75
2021/11/26 04:36:56;;;;;;;26.20;15.03;;;;;;;;;;5099980;28;20487;-75
2021/11/26 04:39:26;;;;;;;25.70;14.73;;;;;;;;;;5100144;28;20464;-75
2021/11/26 04:41:54;;;;;;;27.10;15.97;;;;;;;;;;5099418;28;20459;-75
2021/11/26 04:44:22;;;;;;;22.97;13.43;;;;;;;;;;5100046;28;20848;-75
2021/11/26 04:46:51;;;;;;;22.10;13.47;;;;;;;;;;5100057;28;20463;-75
2021/11/26 04:49:19;;;;;;;20.07;13.27;;;;;;;;;;5098974;28;20470;-75
2021/11/26 04:51:47;;;;;;;27.60;15.83;;;;;;;;;;5099769;28;20440;-75
2021/11/26 04:54:15;;;;;;;24.83;15.03;;;;;;;;;;5099907;28;20847;-75
2021/11/26 04:56:44;;;;;;;23.20;13.63;;;;;;;;;;5098993;28;20471;-75
2021/11/26 04:59:12;;;;;;;26.17;15.20;;;;;;;;;;5094593;28;20482;-75
2021/11/26 05:01:40;;;;;;;23.87;15.00;;;;;;;;;;5095778;28;20519;-75
2021/11/26 05:04:08;;;;;;;22.13;14.07;;;;;;;;;;5099792;28;20449;-75
2021/11/26 05:06:36;;;;;;;23.67;14.20;;;;;;;;;;5099689;28;20450;-75
2021/11/26 05:09:07;;;;;;;25.27;13.97;;;;;;;;;;5099565;28;20471;-75
2021/11/26 05:11:35;;;;;;;24.23;14.30;;;;;;;;;;5094716;28;20791;-75
2021/11/26 05:14:06;;;;;;;22.50;13.83;;;;;;;;;;5088014;28;20455;-75
2021/11/26 05:16:34;;;;;;;23.27;14.27;;;;;;;;;;5089631;28;20499;-74
2021/11/26 05:19:02;;;;;;;24.60;14.40;;;;;;;;;;5097544;28;20458;-75
2021/11/26 05:21:30;;;;;;;25.03;14.87;;;;;;;;;;5104175;28;20926;-75
2021/11/26 05:23:58;;;;;;;22.87;13.57;;;;;;;;;;5102578;28;20447;-75
2021/11/26 05:26:26;;;;;;;24.00;13.90;;;;;;;;;;5103955;28;20448;-75
2021/11/26 05:28:55;;;;;;;26.00;14.97;;;;;;;;;;5094387;28;20566;-75
2021/11/26 05:31:24;;;;;;;20.33;14.67;;;;;;;;;;5109099;27;20570;-75
2021/11/26 05:33:53;;;;;;;26.07;14.63;;;;;;;;;;5106415;28;20803;-75
2021/11/26 05:36:21;;;;;;;26.03;14.80;;;;;;;;;;5098775;28;20486;-75
2021/11/26 05:38:49;;;;;;;27.23;14.93;;;;;;;;;;5099168;28;20463;-75
2021/11/26 05:41:17;;;;;;;27.23;16.33;;;;;;;;;;5087540;28;20544;-75
2021/11/26 05:43:45;;;;;;;27.27;14.50;;;;;;;;;;5097886;28;20489;-75
2021/11/26 05:46:14;;;;;;;27.00;15.43;;;;;;;;;;5098819;28;20444;-75
2021/11/26 05:48:43;;;;;;;25.40;16.20;;;;;;;;;;5095873;28;20860;-75
2021/11/26 05:51:11;;;;;;;24.90;14.60;;;;;;;;;;5094526;28;20443;-75
2021/11/26 05:53:39;;;;;;;25.23;15.23;;;;;;;;;;5098975;28;20446;-77
2021/11/26 05:56:07;;;;;;;24.17;14.80;;;;;;;;;;5098422;28;20443;-76
2021/11/26 05:58:35;;;;;;;24.50;14.00;;;;;;;;;;5096836;28;20479;-79
2021/11/26 06:01:03;;;;;;;26.87;15.30;;;;;;;;;;5098812;28;20447;-76
2021/11/26 06:03:31;;;;;;;22.03;12.67;;;;;;;;;;5106526;28;20791;-76
2021/11/26 06:06:01;;;;;;;24.07;13.63;;;;;;;;;;5100961;28;20526;-76
2021/11/26 06:08:29;;;;;;;23.70;14.50;;;;;;;;;;5098673;28;20463;-78
2021/11/26 06:10:57;;;;;;;27.67;15.77;;;;;;;;;;5091532;28;20490;-78
2021/11/26 06:13:25;;;;;;;24.80;14.43;;;;;;;;;;5098089;28;20523;-76
2021/11/26 06:15:53;;;;;;;24.90;14.43;;;;;;;;;;5093170;28;20491;-76
2021/11/26 06:18:21;;;;;;;26.43;15.20;;;;;;;;;;5097958;28;20490;-77
2021/11/26 06:20:49;;;;;;;30.63;16.60;;;;;;;;;;5098008;28;20436;-76
2021/11/26 06:23:18;;;;;;;23.90;15.13;;;;;;;;;;5098322;28;20454;-76
2021/11/26 06:25:46;;;;;;;26.03;15.30;;;;;;;;;;5088803;28;20464;-77
2021/11/26 06:28:14;;;;;;;28.90;16.97;;;;;;;;;;5081678;28;20659;-77
2021/11/26 06:30:43;;;;;;;26.47;16.00;;;;;;;;;;5098038;28;20482;-76
2021/11/26 06:33:10;;;;;;;22.37;14.00;;;;;;;;;;5097834;28;20547;-76
2021/11/26 06:35:38;;;;;;;27.83;16.40;;;;;;;;;;5096274;28;20453;-75
2021/11/26 06:38:06;;;;;;;29.07;16.20;;;;;;;;;;5096128;28;20483;-79
2021/11/26 06:40:37;;;;;;;25.37;16.23;;;;;;;;;;5094797;28;20448;-76
2021/11/26 06:43:06;;;;;;;23.30;14.70;;;;;;;;;;5102218;28;20479;-75
2021/11/26 06:45:34;;;;;;;29.50;15.40;;;;;;;;;;5097532;28;20534;-76
2021/11/26 06:48:01;;;;;;;29.37;16.37;;;;;;;;;;5095727;28;20531;-76
2021/11/26 06:50:30;;;;;;;28.13;15.47;;;;;;;;;;5095506;28;20449;-76
2021/11/26 06:52:57;;;;;;;27.47;15.33;;;;;;;;;;5095503;28;20448;-76
2021/11/26 06:55:25;;;;;;;27.17;16.60;;;;;;;;;;5095534;28;20978;-76
2021/11/26 06:57:55;;;;;;;25.43;15.33;;;;;;;;;;5089433;28;20479;-76
2021/11/26 07:00:23;;;;;;;28.07;15.83;;;;;;;;;;5081702;28;20444;-76
2021/11/26 07:02:51;;;;;;;23.13;15.03;;;;;;;;;;5095409;28;20446;-76
2021/11/26 07:05:19;;;;;;;24.63;14.60;;;;;;;;;;5096806;28;20493;-76
2021/11/26 07:07:47;;;;;;;26.40;14.93;;;;;;;;;;5095645;28;20443;-76
2021/11/26 07:10:15;;;;;;;25.30;15.60;;;;;;;;;;5095259;28;20446;-76
2021/11/26 07:12:44;;;;;;;29.73;16.17;;;;;;;;;;5093511;28;20522;-76
2021/11/26 07:15:14;;;;;;;27.97;14.43;;;;;;;;;;5092617;28;20942;-76
2021/11/26 07:17:42;;;;;;;27.07;15.30;;;;;;;;;;5091887;28;20480;-75
2021/11/26 07:20:11;;;;;;;29.43;15.60;;;;;;;;;;5094259;28;20458;-75
2021/11/26 07:22:39;;;;;;;25.67;15.67;;;;;;;;;;5096694;28;20448;-76
2021/11/26 07:25:07;;;;;;;24.57;14.33;;;;;;;;;;5097332;28;20445;-76
2021/11/26 07:27:35;;;;;;;24.13;15.03;;;;;;;;;;5092301;28;20457;-76
2021/11/26 07:30:03;;;;;;;26.87;16.13;;;;;;;;;;5096978;28;20435;-76
2021/11/26 07:32:33;;;;;;;26.60;15.13;;;;;;;;;;5097040;28;20534;-76
2021/11/26 07:35:01;;;;;;;25.33;14.97;;;;;;;;;;5097300;28;20444;-76
2021/11/26 07:37:29;;;;;;;25.37;16.07;;;;;;;;;;5096825;28;20485;-76
2021/11/26 07:39:57;;;;;;;27.33;16.47;;;;;;;;;;5096893;28;20463;-76
2021/11/26 07:42:25;;;;;;;29.80;14.63;;;;;;;;;;5095531;28;20459;-76
2021/11/26 07:44:53;;;;;;;24.17;14.20;;;;;;;;;;5096747;28;20478;-76
2021/11/26 07:47:21;;;;;;;25.60;13.60;;;;;;;;;;5097236;28;20451;-76
2021/11/26 07:49:52;;;;;;;23.67;13.47;;;;;;;;;;5096008;28;20478;-76
2021/11/26 07:52:21;;;;;;;26.77;14.87;;;;;;;;;;5096856;28;20443;-76
2021/11/26 07:54:49;;;;;;;26.93;15.47;;;;;;;;;;5096863;28;20523;-76
2021/11/26 07:57:17;;;;;;;24.03;14.23;;;;;;;;;;5090479;28;20955;-76
2021/11/26 07:59:45;;;;;;;24.43;14.23;;;;;;;;;;5089123;28;20539;-76
2021/11/26 08:02:13;;;;;;;21.53;13.53;;;;;;;;;;5096978;28;20454;-76
2021/11/26 08:04:41;;;;;;;23.47;14.70;;;;;;;;;;5096861;28;20989;-76
2021/11/26 08:07:11;;;;;;;24.10;13.57;;;;;;;;;;5095803;28;20466;-76
2021/11/26 08:09:39;;;;;;;30.40;14.87;;;;;;;;;;5097007;28;20474;-77
2021/11/26 08:12:08;;;;;;;25.67;15.30;;;;;;;;;;5096950;28;20511;-76
2021/11/26 08:14:36;;;;;;;26.13;13.57;;;;;;;;;;5095698;28;20460;-76
2021/11/26 08:17:04;;;;;;;26.90;14.03;;;;;;;;;;5096500;28;20530;-76
2021/11/26 08:19:32;;;;;;;22.90;14.30;;;;;;;;;;5096735;28;20493;-76
2021/11/26 08:22:00;;;;;;;23.93;13.47;;;;;;;;;;5094292;28;20463;-76
2021/11/26 08:24:30;;;;;;;24.10;14.03;;;;;;;;;;5099490;28;20443;-76
2021/11/26 08:26:58;;;;;;;28.23;14.50;;;;;;;;;;5095206;28;20448;-76
2021/11/26 08:29:29;;;;;;;24.77;13.50;;;;;;;;;;5093051;28;20455;-76
2021/11/26 08:31:57;;;;;;;24.23;13.77;;;;;;;;;;5100269;28;20443;-76
2021/11/26 08:34:25;;;;;;;22.53;14.00;;;;;;;;;;5100192;28;20527;-76
2021/11/26 08:36:53;;;;;;;21.27;13.17;;;;;;;;;;5098348;28;20463;-76
2021/11/26 08:39:21;;;;;;;21.10;12.73;;;;;;;;;;5100277;28;20570;-76
2021/11/26 08:41:50;;;;;;;22.67;13.90;;;;;;;;;;5099882;28;20443;-76
2021/11/26 08:44:18;;;;;;;23.00;12.63;;;;;;;;;;5099904;28;20558;-76
2021/11/26 08:46:46;;;;;;;24.63;13.23;;;;;;;;;;5100019;28;20462;-76
2021/11/26 08:49:14;;;;;;;23.87;14.03;;;;;;;;;;5099805;28;20506;-76
2021/11/26 08:51:44;;;;;;;22.90;14.13;;;;;;;;;;5098358;28;20455;-76
2021/11/26 08:54:12;;;;;;;23.70;13.13;;;;;;;;;;5099795;28;20511;-76
2021/11/26 08:56:41;;;;;;;27.30;14.00;;;;;;;;;;5099400;28;20532;-77
2021/11/26 08:59:11;;;;;;;23.93;13.63;;;;;;;;;;5083043;28;20484;-75
2021/11/26 09:01:39;;;;;;;24.03;16.17;;;;;;;;;;5084998;28;20880;-74
2021/11/26 09:04:07;;;;;;;25.90;14.60;;;;;;;;;;5097145;28;20436;-75
2021/11/26 09:06:36;;;;;;;25.70;13.87;;;;;;;;;;5099048;28;20464;-75
2021/11/26 09:09:04;;;;;;;27.13;15.60;;;;;;;;;;5098623;28;20478;-75
2021/11/26 09:11:32;;;;;;;26.50;14.47;;;;;;;;;;5099109;28;20450;-75
2021/11/26 09:14:04;;;;;;;26.67;14.63;;;;;;;;;;5099330;28;20436;-75
2021/11/26 09:16:34;;;;;;;27.27;14.10;;;;;;;;;;5099105;28;20995;-75
2021/11/26 09:19:02;;;;;;;22.87;12.97;;;;;;;;;;5098056;28;20483;-75
2021/11/26 09:21:30;;;;;;;22.57;14.70;;;;;;;;;;5095937;28;20888;-75
2021/11/26 09:23:59;;;;;;;23.00;13.50;;;;;;;;;;5096410;28;20497;-75
2021/11/26 09:26:27;;;;;;;27.93;13.90;;;;;;;;;;5098887;28;21005;-75
2021/11/26 09:28:55;;;;;;;27.43;14.53;;;;;;;;;;5096645;28;20482;-75
2021/11/26 09:31:23;;;;;;;28.93;14.67;;;;;;;;;;5098765;28;20805;-75
2021/11/26 09:33:54;;;;;;;25.63;13.73;;;;;;;;;;5095695;28;20534;-75
2021/11/26 09:36:23;;;;;;;27.73;13.10;;;;;;;;;;5098772;28;20440;-75
2021/11/26 09:38:52;;;;;;;27.57;15.63;;;;;;;;;;5091476;28;21029;-75
2021/11/26 09:41:20;;;;;;;28.80;16.03;;;;;;;;;;5097966;28;20530;-75
2021/11/26 09:44:04;;;;;;;25.93;14.40;;;;;;;;;;5098805;28;20490;-75
2021/11/26 09:46:35;;;;;;;31.77;14.23;;;;;;;;;;5098723;28;20535;-75
2021/11/26 09:49:05;;;;;;;25.97;14.20;;;;;;;;;;5095074;28;20471;-75
2021/11/26 09:51:34;;;;;;;25.27;13.73;;;;;;;;;;5098640;28;20447;-75
2021/11/26 09:54:02;;;;;;;28.43;15.80;;;;;;;;;;5097804;28;20478;-75
2021/11/26 09:56:31;;;;;;;26.50;14.03;;;;;;;;;;5099001;28;20447;-75
2021/11/26 09:58:59;;;;;;;28.20;15.43;;;;;;;;;;5097377;28;20483;-75
2021/11/26 10:01:27;;;;;;;32.73;16.57;;;;;;;;;;5098944;28;20446;-76
2021/11/26 10:03:56;;;;;;;27.80;15.00;;;;;;;;;;5098602;28;20443;-75
2021/11/26 10:06:27;;;;;;;27.27;13.73;;;;;;;;;;5098499;28;20530;-75
2021/11/26 10:09:00;;;;;;;24.77;14.53;;;;;;;;;;5097651;28;20559;-75
2021/11/26 10:11:29;;;;;;;23.60;13.07;;;;;;;;;;5098577;28;20953;-75
2021/11/26 10:13:58;;;;;;;25.23;14.10;;;;;;;;;;5098784;28;20517;-75
2021/11/26 10:16:47;;;;;;;25.50;15.03;;;;;;;;;;5098500;28;20435;-76
2021/11/26 10:19:15;;;;;;;27.10;14.20;;;;;;;;;;5097242;28;20515;-75
2021/11/26 10:21:45;;;;;;;28.43;15.13;;;;;;;;;;5097982;28;20446;-75
2021/11/26 10:24:14;;;;;;;25.33;14.30;;;;;;;;;;5090772;28;20464;-75
2021/11/26 10:26:49;;;;;;;22.20;13.27;;;;;;;;;;5097859;28;20439;-76
2021/11/26 10:29:17;;;;;;;25.13;14.33;;;;;;;;;;5092604;28;20518;-75
2021/11/26 10:31:45;;;;;;;29.83;14.40;;;;;;;;;;5096304;28;20888;-76
2021/11/26 10:34:27;;;;;;;27.03;13.93;;;;;;;;;;5083926;28;20946;-75
2021/11/26 10:36:57;;;;;;;24.83;14.13;;;;;;;;;;5097615;28;20996;-76
2021/11/26 10:39:25;;;;;;;32.43;15.33;;;;;;;;;;5090191;28;20574;-76
2021/11/26 10:41:55;;;;;;;30.47;14.67;;;;;;;;;;5096528;28;20997;-76
2021/11/26 10:44:32;;;;;;;24.40;13.07;;;;;;;;;;5097312;28;20543;-76
2021/11/26 10:47:09;;;;;;;27.70;14.10;;;;;;;;;;5097106;28;20925;-75
2021/11/26 10:50:05;;;;;;;23.33;13.60;;;;;;;;;;5096305;28;20477;-75
2021/11/26 10:58:34;;;;;;;29.30;15.13;;;;;;;;;;5097857;28;20464;-75
2021/11/26 11:01:03;;;;;;;27.30;14.90;;;;;;;;;;5097769;28;20526;-75
2021/11/26 11:03:31;;;;;;;25.57;14.23;;;;;;;;;;5097387;28;20443;-75
2021/11/26 11:05:59;;;;;;;26.77;14.90;;;;;;;;;;5086402;28;20482;-75
2021/11/26 11:08:32;;;;;;;25.37;14.23;;;;;;;;;;5094717;28;20993;-77
2021/11/26 11:11:04;;;;;;;26.13;14.33;;;;;;;;;;5085251;28;21027;-75
2021/11/26 11:13:32;;;;;;;27.07;14.93;;;;;;;;;;5097188;28;20790;-75
2021/11/26 11:16:07;;;;;;;22.67;12.93;;;;;;;;;;5097716;28;20463;-75
2021/11/26 11:18:36;;;;;;;29.20;14.17;;;;;;;;;;5097275;28;21049;-77
2021/11/26 11:21:04;;;;;;;26.30;14.17;;;;;;;;;;5096732;28;21045;-76
2021/11/26 11:23:34;;;;;;;28.23;14.23;;;;;;;;;;5089403;28;20496;-76
2021/11/26 11:26:02;;;;;;;26.37;13.27;;;;;;;;;;5090140;28;20534;-76
2021/11/26 11:28:30;;;;;;;20.57;12.07;;;;;;;;;;5096759;28;20535;-76
2021/11/26 11:30:58;;;;;;;26.70;12.60;;;;;;;;;;5097219;28;20515;-77
2021/11/26 11:33:27;;;;;;;19.40;11.67;;;;;;;;;;5096834;28;20444;-76
2021/11/26 11:35:59;;;;;;;21.53;12.30;;;;;;;;;;5096875;28;20444;-76
2021/11/26 11:38:27;;;;;;;20.90;13.27;;;;;;;;;;5096326;28;20542;-76
2021/11/26 11:41:00;;;;;;;19.93;10.80;;;;;;;;;;5092422;28;20515;-76
2021/11/26 11:43:28;;;;;;;19.50;10.50;;;;;;;;;;5096801;28;20558;-75
2021/11/26 11:45:58;;;;;;;19.47;11.40;;;;;;;;;;5097152;28;20958;-75
2021/11/26 11:48:27;;;;;;;16.57;9.97;;;;;;;;;;5096923;28;20491;-76
2021/11/26 11:50:56;;;;;;;14.87;8.30;;;;;;;;;;5096911;28;20471;-75
2021/11/26 11:53:31;;;;;;;16.43;8.57;;;;;;;;;;5096875;28;20447;-76
2021/11/26 11:56:08;;;;;;;19.13;10.70;;;;;;;;;;5090517;28;20486;-76
2021/11/26 11:58:49;;;;;;;20.20;9.70;;;;;;;;;;5100138;28;20551;-76
2021/11/26 12:01:26;;;;;;;17.73;9.07;;;;;;;;;;5094120;28;20566;-77
2021/11/26 12:03:56;;;;;;;16.90;8.90;;;;;;;;;;5100826;28;20439;-77
2021/11/26 12:06:24;;;;;;;16.20;9.27;;;;;;;;;;5100425;28;20510;-76
2021/11/26 12:08:55;;;;;;;18.03;9.20;;;;;;;;;;5100586;28;20459;-77
2021/11/26 12:11:26;;;;;;;14.10;8.37;;;;;;;;;;5098552;28;20458;-79
2021/11/26 12:14:05;;;;;;;13.70;8.13;;;;;;;;;;5099691;28;20546;-78
2021/11/26 12:16:45;;;;;;;14.93;8.47;;;;;;;;;;5100837;28;20451;-81
2021/11/26 12:19:20;;;;;;;15.17;8.80;;;;;;;;;;5100973;28;20467;-81
2021/11/26 12:21:49;;;;;;;20.80;11.17;;;;;;;;;;5100253;28;20438;-80
2021/11/26 12:24:20;;;;;;;14.70;9.20;;;;;;;;;;5100907;28;20453;-81
2021/11/26 12:26:52;;;;;;;19.70;9.77;;;;;;;;;;5089296;28;20474;-81
2021/11/26 12:29:22;;;;;;;16.93;9.30;;;;;;;;;;5100493;28;20464;-81
2021/11/26 12:31:51;;;;;;;16.33;9.17;;;;;;;;;;5100796;28;20446;-81
2021/11/26 12:34:20;;;;;;;18.00;9.87;;;;;;;;;;5100404;28;20930;-81
2021/11/26 12:36:49;;;;;;;16.30;8.13;;;;;;;;;;5100249;28;20445;-81
2021/11/26 12:39:23;;;;;;;16.83;9.77;;;;;;;;;;5099955;28;20982;-81
2021/11/26 12:41:54;;;;;;;15.10;8.43;;;;;;;;;;5091892;28;20566;-82
2021/11/26 12:44:23;;;;;;;14.23;8.00;;;;;;;;;;5099975;28;20471;-80
2021/11/26 12:46:55;;;;;;;14.23;7.70;;;;;;;;;;5100022;28;20450;-81
2021/11/26 12:52:03;;;;;;;15.00;8.07;;;;;;;;;;5099579;28;20874;-81
2021/11/26 12:54:31;;;;;;;16.40;9.83;;;;;;;;;;5100237;28;20439;-81
2021/11/26 12:57:02;;;;;;;18.37;9.97;;;;;;;;;;5088464;28;20456;-80
2021/11/26 12:59:31;;;;;;;15.97;8.53;;;;;;;;;;5093671;28;20505;-81
2021/11/26 13:02:00;;;;;;;12.93;7.67;;;;;;;;;;5099807;28;20475;-80
2021/11/26 13:04:28;;;;;;;13.97;8.40;;;;;;;;;;5100084;28;20481;-82
2021/11/26 13:07:03;;;;;;;12.83;8.17;;;;;;;;;;5099696;28;20531;-80
2021/11/26 13:09:41;;;;;;;12.77;7.93;;;;;;;;;;5098794;28;20843;-81
2021/11/26 13:12:11;;;;;;;16.20;9.50;;;;;;;;;;5098557;28;20448;-82
2021/11/26 13:14:49;;;;;;;15.10;8.17;;;;;;;;;;5099466;28;20439;-81
2021/11/26 13:17:18;;;;;;;11.93;7.93;;;;;;;;;;5099502;28;20442;-81
2021/11/26 13:19:56;;;;;;;16.93;8.33;;;;;;;;;;5098556;28;20994;-82
2021/11/26 13:22:24;;;;;;;15.17;9.10;;;;;;;;;;5100017;28;20534;-82
2021/11/26 13:24:52;;;;;;;16.80;7.90;;;;;;;;;;5100068;28;20439;-82
2021/11/26 13:27:21;;;;;;;13.57;8.23;;;;;;;;;;5099944;28;20448;-81
2021/11/26 13:30:09;;;;;;;18.87;8.10;;;;;;;;;;5097712;28;20451;-81
2021/11/26 13:32:37;;;;;;;14.00;9.10;;;;;;;;;;5099438;28;20443;-81
2021/11/26 13:35:05;;;;;;;15.17;8.97;;;;;;;;;;5099201;28;20463;-81
2021/11/26 13:37:33;;;;;;;15.00;8.50;;;;;;;;;;5098911;28;20817;-81
2021/11/26 13:40:01;;;;;;;16.37;9.37;;;;;;;;;;5097993;28;20550;-81
2021/11/26 13:42:33;;;;;;;16.73;9.33;;;;;;;;;;5107918;28;20522;-81
2021/11/26 13:45:01;;;;;;;16.87;8.50;;;;;;;;;;5098112;28;20472;-81
2021/11/26 13:47:46;;;;;;;13.80;8.43;;;;;;;;;;5086779;28;20433;-81
2021/11/26 13:50:14;;;;;;;14.57;8.77;;;;;;;;;;5084746;28;20588;-81
2021/11/26 13:52:43;;;;;;;16.43;9.37;;;;;;;;;;5084378;28;20582;-81
2021/11/26 13:55:32;;;;;;;12.40;8.00;;;;;;;;;;5094882;28;20463;-80
2021/11/26 13:58:09;;;;;;;18.87;11.30;;;;;;;;;;5109297;28;20466;-82
2021/11/26 14:00:44;;;;;;;15.73;8.87;;;;;;;;;;5105446;28;20477;-81
2021/11/26 14:03:32;;;;;;;15.60;9.30;;;;;;;;;;5106582;28;20428;-81
2021/11/26 14:06:14;;;;;;;16.57;8.97;;;;;;;;;;5106447;28;20434;-80
2021/11/26 14:08:47;;;;;;;13.77;8.73;;;;;;;;;;5106553;28;20456;-81
2021/11/26 14:11:37;;;;;;;15.70;8.87;;;;;;;;;;5104274;28;20514;-81
2021/11/26 14:14:08;;;;;;;18.10;10.57;;;;;;;;;;5107881;28;20948;-81
2021/11/26 14:16:47;;;;;;;21.13;12.13;;;;;;;;;;5102691;28;20479;-81
2021/11/26 14:19:25;;;;;;;23.03;12.13;;;;;;;;;;5085024;28;20485;-82
2021/11/26 14:22:14;;;;;;;21.60;11.90;;;;;;;;;;5092290;28;20468;-82
2021/11/26 14:24:43;;;;;;;20.97;12.53;;;;;;;;;;5105018;28;20434;-82
2021/11/26 14:27:13;;;;;;;25.53;12.60;;;;;;;;;;5099974;28;20515;-81
2021/11/26 14:29:49;;;;;;;22.37;12.77;;;;;;;;;;5108146;28;20973;-81
2021/11/26 14:32:17;;;;;;;27.60;13.43;;;;;;;;;;5097824;28;20938;-82
2021/11/26 14:34:46;;;;;;;21.43;13.37;;;;;;;;;;5104448;28;20955;-81
2021/11/26 14:37:17;;;;;;;24.90;13.07;;;;;;;;;;5107907;28;20446;-80
2021/11/26 14:39:45;;;;;;;26.73;14.77;;;;;;;;;;5106346;28;21059;-81
2021/11/26 14:42:14;;;;;;;25.97;13.53;;;;;;;;;;5104299;28;20475;-82